sensor_id;sensor_type;location;lat;lon;timestamp;P1;durP1;ratioP1;P2;durP2;ratioP2
7330;SDS011;3706;49.198;7.064;2022-09-28T00:01:31;1.77;;;1.10;;
7330;SDS011;3706;49.198;7.064;2022-09-28T00:04:00;1.00;;;0.90;;
7330;SDS011;3706;49.198;7.064;2022-09-28T00:06:27;1.87;;;1.33;;
7330;SDS011;3706;49.198;7.064;2022-09-28T00:08:55;2.20;;;1.37;;
7330;SDS011;3706;49.198;7.064;2022-09-28T00:11:23;2.53;;;1.20;;
7330;SDS011;3706;49.198;7.064;2022-09-28T00:13:53;3.30;;;1.37;;
7330;SDS011;3706;49.198;7.064;2022-09-28T00:16:23;2.50;;;1.60;;
7330;SDS011;3706;49.198;7.064;2022-09-28T00:18:52;4.00;;;1.77;;
7330;SDS011;3706;49.198;7.064;2022-09-28T00:21:21;2.67;;;1.33;;
7330;SDS011;3706;49.198;7.064;2022-09-28T00:23:50;3.20;;;1.50;;
7330;SDS011;3706;49.198;7.064;2022-09-28T00:26:36;4.23;;;1.83;;
7330;SDS011;3706;49.198;7.064;2022-09-28T00:29:05;2.20;;;1.50;;
7330;SDS011;3706;49.198;7.064;2022-09-28T00:31:33;6.17;;;2.40;;
7330;SDS011;3706;49.198;7.064;2022-09-28T00:34:00;5.80;;;2.20;;
7330;SDS011;3706;49.198;7.064;2022-09-28T00:36:31;3.97;;;2.30;;
7330;SDS011;3706;49.198;7.064;2022-09-28T00:39:01;5.03;;;1.70;;
7330;SDS011;3706;49.198;7.064;2022-09-28T00:41:30;4.57;;;1.90;;
7330;SDS011;3706;49.198;7.064;2022-09-28T00:47:00;4.87;;;3.13;;
7330;SDS011;3706;49.198;7.064;2022-09-28T00:49:34;6.20;;;1.40;;
7330;SDS011;3706;49.198;7.064;2022-09-28T00:52:07;2.93;;;1.37;;
7330;SDS011;3706;49.198;7.064;2022-09-28T00:54:38;2.03;;;1.10;;
7330;SDS011;3706;49.198;7.064;2022-09-28T00:57:07;2.20;;;1.30;;
7330;SDS011;3706;49.198;7.064;2022-09-28T00:59:34;3.70;;;1.23;;
7330;SDS011;3706;49.198;7.064;2022-09-28T01:02:01;5.33;;;2.77;;
7330;SDS011;3706;49.198;7.064;2022-09-28T01:04:29;2.97;;;1.20;;
7330;SDS011;3706;49.198;7.064;2022-09-28T01:06:57;4.37;;;1.50;;
7330;SDS011;3706;49.198;7.064;2022-09-28T01:09:27;4.53;;;1.60;;
7330;SDS011;3706;49.198;7.064;2022-09-28T01:11:55;4.07;;;1.37;;
7330;SDS011;3706;49.198;7.064;2022-09-28T01:14:22;3.93;;;1.40;;
7330;SDS011;3706;49.198;7.064;2022-09-28T01:16:53;2.10;;;1.60;;
7330;SDS011;3706;49.198;7.064;2022-09-28T01:19:34;3.43;;;1.70;;
7330;SDS011;3706;49.198;7.064;2022-09-28T01:22:17;3.90;;;1.90;;
7330;SDS011;3706;49.198;7.064;2022-09-28T01:24:55;6.77;;;2.10;;
7330;SDS011;3706;49.198;7.064;2022-09-28T01:27:28;9.27;;;2.33;;
7330;SDS011;3706;49.198;7.064;2022-09-28T01:30:00;5.63;;;2.10;;
7330;SDS011;3706;49.198;7.064;2022-09-28T01:32:35;4.73;;;2.50;;
7330;SDS011;3706;49.198;7.064;2022-09-28T01:35:08;7.70;;;2.53;;
7330;SDS011;3706;49.198;7.064;2022-09-28T01:37:41;4.90;;;2.43;;
7330;SDS011;3706;49.198;7.064;2022-09-28T01:40:12;4.63;;;2.10;;
7330;SDS011;3706;49.198;7.064;2022-09-28T01:42:42;4.00;;;3.00;;
7330;SDS011;3706;49.198;7.064;2022-09-28T01:45:13;7.57;;;2.37;;
7330;SDS011;3706;49.198;7.064;2022-09-28T01:47:44;4.90;;;1.77;;
7330;SDS011;3706;49.198;7.064;2022-09-28T01:50:13;3.43;;;1.73;;
7330;SDS011;3706;49.198;7.064;2022-09-28T01:52:44;2.97;;;1.67;;
7330;SDS011;3706;49.198;7.064;2022-09-28T01:55:17;4.93;;;2.20;;
7330;SDS011;3706;49.198;7.064;2022-09-28T01:57:51;4.77;;;2.20;;
7330;SDS011;3706;49.198;7.064;2022-09-28T02:00:22;6.10;;;2.30;;
7330;SDS011;3706;49.198;7.064;2022-09-28T02:02:51;5.63;;;2.03;;
7330;SDS011;3706;49.198;7.064;2022-09-28T02:05:25;6.37;;;1.90;;
7330;SDS011;3706;49.198;7.064;2022-09-28T02:07:56;3.93;;;1.93;;
7330;SDS011;3706;49.198;7.064;2022-09-28T02:10:29;8.67;;;2.03;;
7330;SDS011;3706;49.198;7.064;2022-09-28T02:13:01;6.80;;;2.30;;
7330;SDS011;3706;49.198;7.064;2022-09-28T02:15:32;5.90;;;1.90;;
7330;SDS011;3706;49.198;7.064;2022-09-28T02:18:06;7.63;;;2.60;;
7330;SDS011;3706;49.198;7.064;2022-09-28T02:20:33;5.43;;;2.27;;
7330;SDS011;3706;49.198;7.064;2022-09-28T02:23:03;7.77;;;2.40;;
7330;SDS011;3706;49.198;7.064;2022-09-28T02:25:34;6.00;;;2.40;;
7330;SDS011;3706;49.198;7.064;2022-09-28T02:28:07;7.60;;;2.10;;
7330;SDS011;3706;49.198;7.064;2022-09-28T02:30:37;6.07;;;2.40;;
7330;SDS011;3706;49.198;7.064;2022-09-28T02:33:08;9.37;;;2.27;;
7330;SDS011;3706;49.198;7.064;2022-09-28T02:35:38;6.97;;;2.27;;
7330;SDS011;3706;49.198;7.064;2022-09-28T02:38:07;6.43;;;2.27;;
7330;SDS011;3706;49.198;7.064;2022-09-28T02:40:35;7.20;;;2.60;;
7330;SDS011;3706;49.198;7.064;2022-09-28T02:43:07;6.83;;;2.40;;
7330;SDS011;3706;49.198;7.064;2022-09-28T02:45:44;7.47;;;2.50;;
7330;SDS011;3706;49.198;7.064;2022-09-28T02:48:19;9.40;;;2.97;;
7330;SDS011;3706;49.198;7.064;2022-09-28T02:51:04;7.03;;;2.43;;
7330;SDS011;3706;49.198;7.064;2022-09-28T02:53:44;6.67;;;3.30;;
7330;SDS011;3706;49.198;7.064;2022-09-28T02:56:28;6.67;;;2.57;;
7330;SDS011;3706;49.198;7.064;2022-09-28T02:59:15;9.43;;;3.40;;
7330;SDS011;3706;49.198;7.064;2022-09-28T03:01:57;4.40;;;1.73;;
7330;SDS011;3706;49.198;7.064;2022-09-28T03:04:34;14.47;;;3.30;;
7330;SDS011;3706;49.198;7.064;2022-09-28T03:07:09;5.93;;;2.40;;
7330;SDS011;3706;49.198;7.064;2022-09-28T03:09:48;6.90;;;2.40;;
7330;SDS011;3706;49.198;7.064;2022-09-28T03:12:21;8.23;;;2.47;;
7330;SDS011;3706;49.198;7.064;2022-09-28T03:15:05;6.70;;;2.43;;
7330;SDS011;3706;49.198;7.064;2022-09-28T03:17:34;8.70;;;2.90;;
7330;SDS011;3706;49.198;7.064;2022-09-28T03:20:02;8.13;;;3.03;;
7330;SDS011;3706;49.198;7.064;2022-09-28T03:22:29;10.90;;;3.50;;
7330;SDS011;3706;49.198;7.064;2022-09-28T03:24:56;10.63;;;2.87;;
7330;SDS011;3706;49.198;7.064;2022-09-28T03:27:23;11.80;;;3.50;;
7330;SDS011;3706;49.198;7.064;2022-09-28T03:29:50;8.93;;;3.20;;
7330;SDS011;3706;49.198;7.064;2022-09-28T03:32:18;8.73;;;3.40;;
7330;SDS011;3706;49.198;7.064;2022-09-28T03:34:45;7.33;;;2.00;;
7330;SDS011;3706;49.198;7.064;2022-09-28T03:37:12;4.97;;;2.30;;
7330;SDS011;3706;49.198;7.064;2022-09-28T03:39:39;8.53;;;3.47;;
7330;SDS011;3706;49.198;7.064;2022-09-28T03:42:06;7.87;;;3.17;;
7330;SDS011;3706;49.198;7.064;2022-09-28T03:44:32;11.03;;;3.20;;
7330;SDS011;3706;49.198;7.064;2022-09-28T03:46:59;7.57;;;3.17;;
7330;SDS011;3706;49.198;7.064;2022-09-28T03:49:27;8.43;;;2.27;;
7330;SDS011;3706;49.198;7.064;2022-09-28T03:51:54;9.03;;;3.60;;
7330;SDS011;3706;49.198;7.064;2022-09-28T03:54:21;5.70;;;2.40;;
7330;SDS011;3706;49.198;7.064;2022-09-28T03:56:48;13.43;;;3.40;;
7330;SDS011;3706;49.198;7.064;2022-09-28T03:59:16;8.07;;;3.37;;
7330;SDS011;3706;49.198;7.064;2022-09-28T04:01:43;10.53;;;3.40;;
7330;SDS011;3706;49.198;7.064;2022-09-28T04:04:10;12.00;;;3.30;;
7330;SDS011;3706;49.198;7.064;2022-09-28T04:06:39;8.57;;;2.80;;
7330;SDS011;3706;49.198;7.064;2022-09-28T04:09:06;8.57;;;3.07;;
7330;SDS011;3706;49.198;7.064;2022-09-28T04:11:33;8.23;;;2.80;;
7330;SDS011;3706;49.198;7.064;2022-09-28T04:14:00;8.93;;;2.90;;
7330;SDS011;3706;49.198;7.064;2022-09-28T04:16:27;8.33;;;2.73;;
7330;SDS011;3706;49.198;7.064;2022-09-28T04:18:54;5.53;;;2.80;;
7330;SDS011;3706;49.198;7.064;2022-09-28T04:21:22;4.00;;;2.20;;
7330;SDS011;3706;49.198;7.064;2022-09-28T04:23:50;12.47;;;3.00;;
7330;SDS011;3706;49.198;7.064;2022-09-28T04:26:20;6.90;;;2.87;;
7330;SDS011;3706;49.198;7.064;2022-09-28T04:28:49;7.77;;;3.27;;
7330;SDS011;3706;49.198;7.064;2022-09-28T04:31:37;6.00;;;2.50;;
7330;SDS011;3706;49.198;7.064;2022-09-28T04:34:05;10.50;;;3.50;;
7330;SDS011;3706;49.198;7.064;2022-09-28T04:36:32;11.03;;;2.73;;
7330;SDS011;3706;49.198;7.064;2022-09-28T04:39:00;11.03;;;3.13;;
7330;SDS011;3706;49.198;7.064;2022-09-28T04:41:27;7.00;;;3.17;;
7330;SDS011;3706;49.198;7.064;2022-09-28T04:43:54;10.03;;;3.77;;
7330;SDS011;3706;49.198;7.064;2022-09-28T04:46:21;11.10;;;3.53;;
7330;SDS011;3706;49.198;7.064;2022-09-28T04:48:47;8.97;;;3.40;;
7330;SDS011;3706;49.198;7.064;2022-09-28T04:51:14;8.53;;;3.13;;
7330;SDS011;3706;49.198;7.064;2022-09-28T04:53:41;13.87;;;3.70;;
7330;SDS011;3706;49.198;7.064;2022-09-28T04:56:10;11.77;;;3.60;;
7330;SDS011;3706;49.198;7.064;2022-09-28T04:58:39;15.33;;;4.00;;
7330;SDS011;3706;49.198;7.064;2022-09-28T05:01:07;9.63;;;3.77;;
7330;SDS011;3706;49.198;7.064;2022-09-28T05:03:36;9.40;;;2.77;;
7330;SDS011;3706;49.198;7.064;2022-09-28T05:06:03;9.10;;;2.87;;
7330;SDS011;3706;49.198;7.064;2022-09-28T05:08:31;8.23;;;3.10;;
7330;SDS011;3706;49.198;7.064;2022-09-28T05:11:00;4.07;;;2.20;;
7330;SDS011;3706;49.198;7.064;2022-09-28T05:13:32;5.77;;;2.60;;
7330;SDS011;3706;49.198;7.064;2022-09-28T05:16:05;6.40;;;2.80;;
7330;SDS011;3706;49.198;7.064;2022-09-28T05:18:33;14.80;;;4.07;;
7330;SDS011;3706;49.198;7.064;2022-09-28T05:21:01;7.53;;;3.20;;
7330;SDS011;3706;49.198;7.064;2022-09-28T05:23:28;6.83;;;2.77;;
7330;SDS011;3706;49.198;7.064;2022-09-28T05:25:55;6.47;;;3.00;;
7330;SDS011;3706;49.198;7.064;2022-09-28T05:28:26;6.90;;;2.77;;
7330;SDS011;3706;49.198;7.064;2022-09-28T05:30:58;11.40;;;3.50;;
7330;SDS011;3706;49.198;7.064;2022-09-28T05:33:25;8.77;;;3.70;;
7330;SDS011;3706;49.198;7.064;2022-09-28T05:35:52;10.00;;;4.07;;
7330;SDS011;3706;49.198;7.064;2022-09-28T05:38:19;6.93;;;3.87;;
7330;SDS011;3706;49.198;7.064;2022-09-28T05:40:46;7.33;;;3.30;;
7330;SDS011;3706;49.198;7.064;2022-09-28T05:43:13;15.57;;;3.90;;
7330;SDS011;3706;49.198;7.064;2022-09-28T05:45:40;10.03;;;3.87;;
7330;SDS011;3706;49.198;7.064;2022-09-28T05:48:09;17.60;;;7.27;;
7330;SDS011;3706;49.198;7.064;2022-09-28T05:50:36;58.50;;;44.17;;
7330;SDS011;3706;49.198;7.064;2022-09-28T05:53:03;20.47;;;12.47;;
7330;SDS011;3706;49.198;7.064;2022-09-28T05:55:31;31.90;;;24.87;;
7330;SDS011;3706;49.198;7.064;2022-09-28T05:57:59;24.93;;;15.87;;
7330;SDS011;3706;49.198;7.064;2022-09-28T06:00:27;15.00;;;6.87;;
7330;SDS011;3706;49.198;7.064;2022-09-28T06:02:55;8.87;;;4.33;;
7330;SDS011;3706;49.198;7.064;2022-09-28T06:05:27;12.47;;;5.70;;
7330;SDS011;3706;49.198;7.064;2022-09-28T06:07:55;13.90;;;5.70;;
7330;SDS011;3706;49.198;7.064;2022-09-28T06:10:23;15.20;;;5.63;;
7330;SDS011;3706;49.198;7.064;2022-09-28T06:12:51;12.47;;;5.00;;
7330;SDS011;3706;49.198;7.064;2022-09-28T06:15:18;12.60;;;7.33;;
7330;SDS011;3706;49.198;7.064;2022-09-28T06:17:45;11.00;;;5.60;;
7330;SDS011;3706;49.198;7.064;2022-09-28T06:20:12;16.43;;;7.53;;
7330;SDS011;3706;49.198;7.064;2022-09-28T06:22:41;8.73;;;4.27;;
7330;SDS011;3706;49.198;7.064;2022-09-28T06:25:08;9.83;;;3.33;;
7330;SDS011;3706;49.198;7.064;2022-09-28T06:27:35;6.10;;;3.57;;
7330;SDS011;3706;49.198;7.064;2022-09-28T06:30:03;9.43;;;3.83;;
7330;SDS011;3706;49.198;7.064;2022-09-28T06:32:31;12.77;;;4.30;;
7330;SDS011;3706;49.198;7.064;2022-09-28T06:34:58;7.40;;;3.10;;
7330;SDS011;3706;49.198;7.064;2022-09-28T06:37:25;8.50;;;4.50;;
7330;SDS011;3706;49.198;7.064;2022-09-28T06:39:54;9.33;;;4.73;;
7330;SDS011;3706;49.198;7.064;2022-09-28T06:42:21;10.10;;;3.40;;
7330;SDS011;3706;49.198;7.064;2022-09-28T06:44:48;10.23;;;4.83;;
7330;SDS011;3706;49.198;7.064;2022-09-28T06:47:15;9.07;;;3.90;;
7330;SDS011;3706;49.198;7.064;2022-09-28T06:49:42;7.53;;;3.20;;
7330;SDS011;3706;49.198;7.064;2022-09-28T06:52:11;8.90;;;3.50;;
7330;SDS011;3706;49.198;7.064;2022-09-28T06:54:39;8.80;;;3.10;;
7330;SDS011;3706;49.198;7.064;2022-09-28T06:57:07;10.83;;;3.57;;
7330;SDS011;3706;49.198;7.064;2022-09-28T06:59:34;4.80;;;2.80;;
7330;SDS011;3706;49.198;7.064;2022-09-28T07:02:00;10.20;;;3.50;;
7330;SDS011;3706;49.198;7.064;2022-09-28T07:04:27;5.20;;;3.13;;
7330;SDS011;3706;49.198;7.064;2022-09-28T07:06:55;6.53;;;2.93;;
7330;SDS011;3706;49.198;7.064;2022-09-28T07:09:23;7.80;;;3.40;;
7330;SDS011;3706;49.198;7.064;2022-09-28T07:11:50;12.47;;;3.60;;
7330;SDS011;3706;49.198;7.064;2022-09-28T07:14:18;7.77;;;3.50;;
7330;SDS011;3706;49.198;7.064;2022-09-28T07:16:46;6.50;;;3.60;;
7330;SDS011;3706;49.198;7.064;2022-09-28T07:19:13;9.57;;;3.23;;
7330;SDS011;3706;49.198;7.064;2022-09-28T07:21:40;11.77;;;3.80;;
7330;SDS011;3706;49.198;7.064;2022-09-28T07:24:07;10.27;;;3.93;;
7330;SDS011;3706;49.198;7.064;2022-09-28T07:26:38;7.47;;;3.00;;
7330;SDS011;3706;49.198;7.064;2022-09-28T07:29:05;8.53;;;3.50;;
7330;SDS011;3706;49.198;7.064;2022-09-28T07:31:33;9.37;;;3.60;;
7330;SDS011;3706;49.198;7.064;2022-09-28T07:34:00;7.53;;;3.27;;
7330;SDS011;3706;49.198;7.064;2022-09-28T07:36:27;8.03;;;3.10;;
7330;SDS011;3706;49.198;7.064;2022-09-28T07:38:59;7.93;;;3.10;;
7330;SDS011;3706;49.198;7.064;2022-09-28T07:41:26;6.70;;;3.20;;
7330;SDS011;3706;49.198;7.064;2022-09-28T07:43:56;6.37;;;3.00;;
7330;SDS011;3706;49.198;7.064;2022-09-28T07:46:29;5.67;;;2.50;;
7330;SDS011;3706;49.198;7.064;2022-09-28T07:48:58;5.27;;;2.40;;
7330;SDS011;3706;49.198;7.064;2022-09-28T07:51:26;8.30;;;2.13;;
7330;SDS011;3706;49.198;7.064;2022-09-28T07:53:53;5.53;;;2.40;;
7330;SDS011;3706;49.198;7.064;2022-09-28T07:56:20;5.87;;;2.23;;
7330;SDS011;3706;49.198;7.064;2022-09-28T07:58:47;7.80;;;2.63;;
7330;SDS011;3706;49.198;7.064;2022-09-28T08:01:14;5.50;;;2.47;;
7330;SDS011;3706;49.198;7.064;2022-09-28T08:03:43;6.37;;;2.47;;
7330;SDS011;3706;49.198;7.064;2022-09-28T08:06:13;6.13;;;2.73;;
7330;SDS011;3706;49.198;7.064;2022-09-28T08:08:41;7.63;;;2.77;;
7330;SDS011;3706;49.198;7.064;2022-09-28T08:11:09;7.57;;;2.43;;
7330;SDS011;3706;49.198;7.064;2022-09-28T08:13:36;5.53;;;2.13;;
7330;SDS011;3706;49.198;7.064;2022-09-28T08:16:04;8.60;;;2.67;;
7330;SDS011;3706;49.198;7.064;2022-09-28T08:18:32;4.63;;;2.00;;
7330;SDS011;3706;49.198;7.064;2022-09-28T08:21:00;5.27;;;2.10;;
7330;SDS011;3706;49.198;7.064;2022-09-28T08:23:46;4.67;;;2.40;;
7330;SDS011;3706;49.198;7.064;2022-09-28T08:26:13;6.33;;;2.17;;
7330;SDS011;3706;49.198;7.064;2022-09-28T08:28:41;5.33;;;2.10;;
7330;SDS011;3706;49.198;7.064;2022-09-28T08:31:09;4.03;;;2.20;;
7330;SDS011;3706;49.198;7.064;2022-09-28T08:33:36;7.10;;;2.83;;
7330;SDS011;3706;49.198;7.064;2022-09-28T08:36:03;5.37;;;2.07;;
7330;SDS011;3706;49.198;7.064;2022-09-28T08:38:30;6.33;;;2.30;;
7330;SDS011;3706;49.198;7.064;2022-09-28T08:41:04;7.57;;;2.47;;
7330;SDS011;3706;49.198;7.064;2022-09-28T08:43:50;6.67;;;2.27;;
7330;SDS011;3706;49.198;7.064;2022-09-28T08:46:36;8.57;;;3.30;;
7330;SDS011;3706;49.198;7.064;2022-09-28T08:49:06;3.73;;;1.90;;
7330;SDS011;3706;49.198;7.064;2022-09-28T08:51:37;6.07;;;1.97;;
7330;SDS011;3706;49.198;7.064;2022-09-28T08:54:11;6.20;;;2.23;;
7330;SDS011;3706;49.198;7.064;2022-09-28T08:56:53;5.00;;;1.70;;
7330;SDS011;3706;49.198;7.064;2022-09-28T08:59:25;6.23;;;2.40;;
7330;SDS011;3706;49.198;7.064;2022-09-28T09:02:10;6.17;;;2.40;;
7330;SDS011;3706;49.198;7.064;2022-09-28T09:04:41;5.97;;;2.07;;
7330;SDS011;3706;49.198;7.064;2022-09-28T09:07:11;4.63;;;1.90;;
7330;SDS011;3706;49.198;7.064;2022-09-28T09:09:54;5.50;;;2.23;;
7330;SDS011;3706;49.198;7.064;2022-09-28T09:12:31;4.53;;;2.20;;
7330;SDS011;3706;49.198;7.064;2022-09-28T09:15:23;4.23;;;2.00;;
7330;SDS011;3706;49.198;7.064;2022-09-28T09:18:13;4.57;;;2.10;;
7330;SDS011;3706;49.198;7.064;2022-09-28T09:20:49;4.30;;;2.47;;
7330;SDS011;3706;49.198;7.064;2022-09-28T09:23:19;8.17;;;6.47;;
7330;SDS011;3706;49.198;7.064;2022-09-28T09:25:57;4.53;;;2.23;;
7330;SDS011;3706;49.198;7.064;2022-09-28T09:28:39;5.23;;;2.40;;
7330;SDS011;3706;49.198;7.064;2022-09-28T09:31:43;4.87;;;2.40;;
7330;SDS011;3706;49.198;7.064;2022-09-28T09:34:28;4.70;;;1.83;;
7330;SDS011;3706;49.198;7.064;2022-09-28T09:37:07;7.07;;;2.07;;
7330;SDS011;3706;49.198;7.064;2022-09-28T09:39:50;3.80;;;2.00;;
7330;SDS011;3706;49.198;7.064;2022-09-28T09:42:37;3.87;;;1.93;;
7330;SDS011;3706;49.198;7.064;2022-09-28T09:45:21;6.10;;;2.00;;
7330;SDS011;3706;49.198;7.064;2022-09-28T09:47:55;4.83;;;2.50;;
7330;SDS011;3706;49.198;7.064;2022-09-28T09:50:27;6.40;;;2.23;;
7330;SDS011;3706;49.198;7.064;2022-09-28T09:52:59;7.93;;;2.40;;
7330;SDS011;3706;49.198;7.064;2022-09-28T09:55:30;5.13;;;2.00;;
7330;SDS011;3706;49.198;7.064;2022-09-28T09:58:03;8.00;;;2.40;;
7330;SDS011;3706;49.198;7.064;2022-09-28T10:00:35;7.80;;;2.30;;
7330;SDS011;3706;49.198;7.064;2022-09-28T10:03:05;5.53;;;2.23;;
7330;SDS011;3706;49.198;7.064;2022-09-28T10:05:38;5.00;;;2.03;;
7330;SDS011;3706;49.198;7.064;2022-09-28T10:08:10;4.70;;;2.00;;
7330;SDS011;3706;49.198;7.064;2022-09-28T10:10:44;6.10;;;2.50;;
7330;SDS011;3706;49.198;7.064;2022-09-28T10:13:14;4.97;;;2.13;;
7330;SDS011;3706;49.198;7.064;2022-09-28T10:15:42;5.20;;;1.80;;
7330;SDS011;3706;49.198;7.064;2022-09-28T10:18:12;7.00;;;2.33;;
7330;SDS011;3706;49.198;7.064;2022-09-28T10:20:42;4.90;;;2.17;;
7330;SDS011;3706;49.198;7.064;2022-09-28T10:23:11;4.07;;;2.00;;
7330;SDS011;3706;49.198;7.064;2022-09-28T10:25:44;4.43;;;1.87;;
7330;SDS011;3706;49.198;7.064;2022-09-28T10:28:14;4.90;;;2.00;;
7330;SDS011;3706;49.198;7.064;2022-09-28T10:30:47;5.67;;;2.10;;
7330;SDS011;3706;49.198;7.064;2022-09-28T10:33:28;4.60;;;2.30;;
7330;SDS011;3706;49.198;7.064;2022-09-28T10:35:57;3.67;;;1.80;;
7330;SDS011;3706;49.198;7.064;2022-09-28T10:38:24;5.93;;;2.00;;
7330;SDS011;3706;49.198;7.064;2022-09-28T10:40:52;5.20;;;1.50;;
7330;SDS011;3706;49.198;7.064;2022-09-28T10:43:21;4.97;;;1.93;;
7330;SDS011;3706;49.198;7.064;2022-09-28T10:45:59;5.37;;;2.00;;
7330;SDS011;3706;49.198;7.064;2022-09-28T10:48:31;3.00;;;1.57;;
7330;SDS011;3706;49.198;7.064;2022-09-28T10:51:16;4.97;;;2.13;;
7330;SDS011;3706;49.198;7.064;2022-09-28T10:53:56;5.17;;;2.07;;
7330;SDS011;3706;49.198;7.064;2022-09-28T10:56:26;6.03;;;2.00;;
7330;SDS011;3706;49.198;7.064;2022-09-28T10:58:54;5.37;;;1.97;;
7330;SDS011;3706;49.198;7.064;2022-09-28T11:01:23;2.80;;;1.77;;
7330;SDS011;3706;49.198;7.064;2022-09-28T11:03:55;4.10;;;1.90;;
7330;SDS011;3706;49.198;7.064;2022-09-28T11:06:24;3.83;;;1.97;;
7330;SDS011;3706;49.198;7.064;2022-09-28T11:08:53;4.13;;;1.73;;
7330;SDS011;3706;49.198;7.064;2022-09-28T11:11:23;4.73;;;1.83;;
7330;SDS011;3706;49.198;7.064;2022-09-28T11:13:51;5.50;;;1.80;;
7330;SDS011;3706;49.198;7.064;2022-09-28T11:16:23;2.20;;;1.33;;
7330;SDS011;3706;49.198;7.064;2022-09-28T11:18:52;6.03;;;2.00;;
7330;SDS011;3706;49.198;7.064;2022-09-28T11:21:24;3.77;;;1.57;;
7330;SDS011;3706;49.198;7.064;2022-09-28T11:23:56;3.30;;;1.80;;
7330;SDS011;3706;49.198;7.064;2022-09-28T11:26:33;7.30;;;2.23;;
7330;SDS011;3706;49.198;7.064;2022-09-28T11:29:05;6.50;;;2.10;;
7330;SDS011;3706;49.198;7.064;2022-09-28T11:31:45;2.67;;;1.70;;
7330;SDS011;3706;49.198;7.064;2022-09-28T11:34:12;5.47;;;2.20;;
7330;SDS011;3706;49.198;7.064;2022-09-28T11:36:50;4.03;;;2.00;;
7330;SDS011;3706;49.198;7.064;2022-09-28T11:39:30;4.63;;;1.90;;
7330;SDS011;3706;49.198;7.064;2022-09-28T11:42:08;6.53;;;2.27;;
7330;SDS011;3706;49.198;7.064;2022-09-28T11:44:45;4.50;;;1.80;;
7330;SDS011;3706;49.198;7.064;2022-09-28T11:47:23;5.03;;;1.80;;
7330;SDS011;3706;49.198;7.064;2022-09-28T11:50:00;6.17;;;1.93;;
7330;SDS011;3706;49.198;7.064;2022-09-28T11:52:32;3.60;;;1.57;;
7330;SDS011;3706;49.198;7.064;2022-09-28T11:55:08;8.53;;;2.03;;
7330;SDS011;3706;49.198;7.064;2022-09-28T11:57:40;3.43;;;1.80;;
7330;SDS011;3706;49.198;7.064;2022-09-28T12:00:11;3.53;;;1.90;;
7330;SDS011;3706;49.198;7.064;2022-09-28T12:02:43;3.77;;;1.60;;
7330;SDS011;3706;49.198;7.064;2022-09-28T12:05:15;4.53;;;1.53;;
7330;SDS011;3706;49.198;7.064;2022-09-28T12:07:49;2.13;;;1.40;;
7330;SDS011;3706;49.198;7.064;2022-09-28T12:10:20;3.83;;;1.90;;
7330;SDS011;3706;49.198;7.064;2022-09-28T12:13:08;3.77;;;2.00;;
7330;SDS011;3706;49.198;7.064;2022-09-28T12:15:40;2.20;;;1.50;;
7330;SDS011;3706;49.198;7.064;2022-09-28T12:18:13;5.30;;;1.80;;
7330;SDS011;3706;49.198;7.064;2022-09-28T12:20:45;2.90;;;1.60;;
7330;SDS011;3706;49.198;7.064;2022-09-28T12:23:17;4.77;;;1.60;;
7330;SDS011;3706;49.198;7.064;2022-09-28T12:25:50;5.37;;;2.00;;
7330;SDS011;3706;49.198;7.064;2022-09-28T12:28:25;4.80;;;1.60;;
7330;SDS011;3706;49.198;7.064;2022-09-28T12:31:03;5.83;;;1.80;;
7330;SDS011;3706;49.198;7.064;2022-09-28T12:33:44;5.03;;;1.87;;
7330;SDS011;3706;49.198;7.064;2022-09-28T12:36:16;3.97;;;1.67;;
7330;SDS011;3706;49.198;7.064;2022-09-28T12:39:01;4.07;;;1.83;;
7330;SDS011;3706;49.198;7.064;2022-09-28T12:41:38;2.70;;;1.37;;
7330;SDS011;3706;49.198;7.064;2022-09-28T12:50:20;2.47;;;1.43;;
7330;SDS011;3706;49.198;7.064;2022-09-28T12:52:59;3.83;;;1.67;;
7330;SDS011;3706;49.198;7.064;2022-09-28T12:55:41;3.57;;;1.80;;
7330;SDS011;3706;49.198;7.064;2022-09-28T12:58:27;4.50;;;1.63;;
7330;SDS011;3706;49.198;7.064;2022-09-28T13:01:07;4.63;;;1.87;;
7330;SDS011;3706;49.198;7.064;2022-09-28T13:03:51;4.17;;;2.17;;
7330;SDS011;3706;49.198;7.064;2022-09-28T13:06:42;5.33;;;2.10;;
7330;SDS011;3706;49.198;7.064;2022-09-28T13:09:17;5.67;;;1.70;;
7330;SDS011;3706;49.198;7.064;2022-09-28T13:11:53;4.37;;;1.90;;
7330;SDS011;3706;49.198;7.064;2022-09-28T13:14:44;3.47;;;1.97;;
7330;SDS011;3706;49.198;7.064;2022-09-28T13:17:38;3.37;;;1.70;;
7330;SDS011;3706;49.198;7.064;2022-09-28T13:20:13;2.57;;;1.70;;
7330;SDS011;3706;49.198;7.064;2022-09-28T13:22:54;6.20;;;2.10;;
7330;SDS011;3706;49.198;7.064;2022-09-28T13:25:27;4.33;;;1.50;;
7330;SDS011;3706;49.198;7.064;2022-09-28T13:27:57;4.30;;;1.83;;
7330;SDS011;3706;49.198;7.064;2022-09-28T13:30:26;4.87;;;1.90;;
7330;SDS011;3706;49.198;7.064;2022-09-28T13:32:54;4.40;;;1.80;;
7330;SDS011;3706;49.198;7.064;2022-09-28T13:35:23;2.93;;;1.50;;
7330;SDS011;3706;49.198;7.064;2022-09-28T13:41:11;4.33;;;1.80;;
7330;SDS011;3706;49.198;7.064;2022-09-28T13:43:46;2.33;;;1.33;;
7330;SDS011;3706;49.198;7.064;2022-09-28T13:46:23;5.70;;;1.93;;
7330;SDS011;3706;49.198;7.064;2022-09-28T13:48:58;2.87;;;1.50;;
7330;SDS011;3706;49.198;7.064;2022-09-28T13:51:38;6.40;;;1.70;;
7330;SDS011;3706;49.198;7.064;2022-09-28T13:54:22;2.50;;;1.57;;
7330;SDS011;3706;49.198;7.064;2022-09-28T13:57:11;4.27;;;1.50;;
7330;SDS011;3706;49.198;7.064;2022-09-28T13:59:47;4.33;;;1.47;;
7330;SDS011;3706;49.198;7.064;2022-09-28T14:02:26;2.53;;;1.50;;
7330;SDS011;3706;49.198;7.064;2022-09-28T14:04:58;5.90;;;2.00;;
7330;SDS011;3706;49.198;7.064;2022-09-28T14:16:30;3.03;;;1.27;;
7330;SDS011;3706;49.198;7.064;2022-09-28T14:19:00;2.90;;;1.53;;
7330;SDS011;3706;49.198;7.064;2022-09-28T14:21:44;4.47;;;1.70;;
7330;SDS011;3706;49.198;7.064;2022-09-28T14:24:27;4.80;;;1.90;;
7330;SDS011;3706;49.198;7.064;2022-09-28T14:27:11;4.90;;;1.80;;
7330;SDS011;3706;49.198;7.064;2022-09-28T14:30:04;3.97;;;1.60;;
7330;SDS011;3706;49.198;7.064;2022-09-28T14:32:43;5.17;;;1.63;;
7330;SDS011;3706;49.198;7.064;2022-09-28T14:35:16;3.33;;;1.77;;
7330;SDS011;3706;49.198;7.064;2022-09-28T14:37:46;4.80;;;2.90;;
7330;SDS011;3706;49.198;7.064;2022-09-28T14:40:43;5.07;;;2.37;;
7330;SDS011;3706;49.198;7.064;2022-09-28T14:43:37;3.83;;;1.70;;
7330;SDS011;3706;49.198;7.064;2022-09-28T14:46:32;4.10;;;1.43;;
7330;SDS011;3706;49.198;7.064;2022-09-28T14:49:03;2.70;;;1.53;;
7330;SDS011;3706;49.198;7.064;2022-09-28T14:51:52;2.83;;;1.13;;
7330;SDS011;3706;49.198;7.064;2022-09-28T14:54:33;3.00;;;1.30;;
7330;SDS011;3706;49.198;7.064;2022-09-28T14:57:14;2.03;;;1.43;;
7330;SDS011;3706;49.198;7.064;2022-09-28T14:59:43;3.63;;;1.50;;
7330;SDS011;3706;49.198;7.064;2022-09-28T15:02:13;4.37;;;1.57;;
7330;SDS011;3706;49.198;7.064;2022-09-28T15:04:50;3.23;;;1.10;;
7330;SDS011;3706;49.198;7.064;2022-09-28T15:07:19;3.27;;;1.47;;
7330;SDS011;3706;49.198;7.064;2022-09-28T15:09:49;3.80;;;1.30;;
7330;SDS011;3706;49.198;7.064;2022-09-28T15:12:18;2.53;;;1.30;;
7330;SDS011;3706;49.198;7.064;2022-09-28T15:14:48;5.07;;;1.70;;
7330;SDS011;3706;49.198;7.064;2022-09-28T15:17:21;3.00;;;1.30;;
7330;SDS011;3706;49.198;7.064;2022-09-28T15:19:52;2.03;;;1.27;;
7330;SDS011;3706;49.198;7.064;2022-09-28T15:22:30;2.70;;;1.40;;
7330;SDS011;3706;49.198;7.064;2022-09-28T15:24:59;2.17;;;1.37;;
7330;SDS011;3706;49.198;7.064;2022-09-28T15:27:33;4.70;;;1.50;;
7330;SDS011;3706;49.198;7.064;2022-09-28T15:30:06;3.90;;;1.67;;
7330;SDS011;3706;49.198;7.064;2022-09-28T15:32:48;2.37;;;1.70;;
7330;SDS011;3706;49.198;7.064;2022-09-28T15:35:17;5.63;;;2.03;;
7330;SDS011;3706;49.198;7.064;2022-09-28T15:37:45;3.13;;;1.70;;
7330;SDS011;3706;49.198;7.064;2022-09-28T15:40:16;3.40;;;1.27;;
7330;SDS011;3706;49.198;7.064;2022-09-28T15:42:44;4.60;;;2.00;;
7330;SDS011;3706;49.198;7.064;2022-09-28T15:45:21;3.43;;;1.60;;
7330;SDS011;3706;49.198;7.064;2022-09-28T15:47:54;2.13;;;1.57;;
7330;SDS011;3706;49.198;7.064;2022-09-28T15:50:38;4.57;;;1.70;;
7330;SDS011;3706;49.198;7.064;2022-09-28T15:53:13;3.60;;;1.70;;
7330;SDS011;3706;49.198;7.064;2022-09-28T15:55:43;3.87;;;1.90;;
7330;SDS011;3706;49.198;7.064;2022-09-28T15:58:14;3.17;;;1.57;;
7330;SDS011;3706;49.198;7.064;2022-09-28T16:00:42;3.17;;;1.93;;
7330;SDS011;3706;49.198;7.064;2022-09-28T16:03:21;3.20;;;1.50;;
7330;SDS011;3706;49.198;7.064;2022-09-28T16:06:03;3.60;;;1.70;;